Time;durP1;ratioP1;P1;durP2;ratioP2;P2;SDS_P1;SDS_P2;PMS_P1;PMS_P2;Temp;Humidity;BMP_temperature;BMP_pressure;BME280_temperature;BME280_humidity;BME280_pressure;Samples;Min_cycle;Max_cycle;Signal;HPM_P1;HPM_P2
2023/10/22 04:03:03;;;;;;;5.60;3.00;;;11.80;99.90;;;;;;6159766;23;20044;-80
2023/10/22 04:05:29;;;;;;;7.45;2.78;;;11.80;99.90;;;;;;6135099;23;20017;-83
2023/10/22 04:07:55;;;;;;;8.80;3.20;;;11.80;99.90;;;;;;6161120;23;20019;-82
2023/10/22 04:10:21;;;;;;;9.40;3.45;;;11.80;99.90;;;;;;6185898;23;20460;-83
2023/10/22 04:12:47;;;;;;;6.20;3.58;;;11.80;99.90;;;;;;6159848;23;20009;-81
2023/10/22 04:15:12;;;;;;;7.53;3.63;;;11.90;99.90;;;;;;6186428;23;20071;-81
2023/10/22 04:17:38;;;;;;;6.28;4.05;;;11.90;99.90;;;;;;6135874;23;20013;-81
2023/10/22 04:20:05;;;;;;;7.07;3.75;;;11.90;99.90;;;;;;6159747;23;20092;-83
2023/10/22 04:22:31;;;;;;;7.40;4.13;;;11.90;99.90;;;;;;6186404;23;20020;-81
2023/10/22 04:24:57;;;;;;;9.20;4.30;;;11.90;99.90;;;;;;6185804;23;20009;-81
2023/10/22 04:27:23;;;;;;;7.68;4.88;;;11.90;99.90;;;;;;6159545;23;20100;-82
2023/10/22 04:29:49;;;;;;;6.82;4.70;;;12.00;99.90;;;;;;6159776;23;20397;-83
2023/10/22 04:32:16;;;;;;;7.05;5.07;;;12.00;99.90;;;;;;6159492;23;20094;-82
2023/10/22 04:34:42;;;;;;;8.68;4.63;;;12.00;99.90;;;;;;6186429;23;20063;-79
2023/10/22 04:37:09;;;;;;;8.60;4.25;;;12.00;99.90;;;;;;6159577;23;20025;-81
2023/10/22 04:39:36;;;;;;;9.05;4.22;;;12.10;99.90;;;;;;6159672;23;20104;-83
2023/10/22 04:42:02;;;;;;;7.32;4.63;;;12.10;99.90;;;;;;6185631;23;20009;-81
2023/10/22 04:44:31;;;;;;;7.25;4.25;;;12.10;99.90;;;;;;6159531;23;20059;-84
2023/10/22 04:46:57;;;;;;;7.15;4.00;;;12.10;99.90;;;;;;6185797;23;20015;-83
2023/10/22 04:49:24;;;;;;;9.52;4.93;;;12.20;99.90;;;;;;6135305;23;20016;-82
2023/10/22 04:51:49;;;;;;;7.80;4.38;;;12.20;99.90;;;;;;6185916;23;20013;-82
2023/10/22 04:54:15;;;;;;;5.85;4.00;;;12.20;99.90;;;;;;6135453;23;20009;-78
2023/10/22 04:56:41;;;;;;;6.75;4.60;;;12.20;99.90;;;;;;6159465;23;20041;-83
2023/10/22 04:59:06;;;;;;;7.00;4.93;;;12.20;99.90;;;;;;6185819;23;20381;-82
2023/10/22 05:01:32;;;;;;;7.30;4.93;;;12.20;99.90;;;;;;6185690;23;20047;-81
2023/10/22 05:03:57;;;;;;;8.32;4.75;;;12.20;99.90;;;;;;6159536;23;20013;-79
2023/10/22 05:06:23;;;;;;;6.20;3.65;;;12.30;99.90;;;;;;6185992;23;20020;-84
2023/10/22 05:08:59;;;;;;;;;;;;;;;;;;;;;
2023/10/22 05:11:26;;;;;;;6.35;3.10;;;12.40;99.90;;;;;;6158788;23;20388;-82
2023/10/22 05:13:52;;;;;;;4.75;2.00;;;12.40;99.90;;;;;;6159980;23;20044;-83
2023/10/22 05:16:21;;;;;;;5.47;1.50;;;12.40;99.90;;;;;;6185879;23;20071;-82
2023/10/22 05:18:49;;;;;;;5.18;1.75;;;12.40;99.90;;;;;;6160089;23;20013;-80
2023/10/22 05:21:21;;;;;;;3.60;1.50;;;12.30;99.90;;;;;;6151611;23;20029;-79
2023/10/22 05:23:47;;;;;;;5.07;1.73;;;12.30;99.90;;;;;;6185433;23;20020;-79
2023/10/22 05:26:13;;;;;;;4.13;1.75;;;12.30;99.90;;;;;;6161418;23;20017;-82
2023/10/22 05:28:39;;;;;;;4.25;1.70;;;12.30;99.90;;;;;;6161277;23;20378;-83
2023/10/22 05:31:18;;;;;;;3.42;1.67;;;12.20;99.90;;;;;;6176707;23;20339;-82
2023/10/22 05:33:44;;;;;;;4.47;1.60;;;12.20;99.90;;;;;;6158133;23;20045;-79
2023/10/22 05:36:20;;;;;;;3.38;1.33;;;12.20;99.90;;;;;;6130971;23;20018;-79
2023/10/22 05:38:47;;;;;;;5.60;1.33;;;12.20;99.90;;;;;;6107260;23;20020;-78
2023/10/22 05:41:24;;;;;;;4.55;1.65;;;12.20;99.90;;;;;;6131466;23;20510;-79
2023/10/22 05:44:00;;;;;;;8.38;2.05;;;12.10;99.90;;;;;;6156487;23;20088;-83
2023/10/22 05:46:33;;;;;;;5.22;2.05;;;12.00;99.90;;;;;;6107669;23;20086;-81
2023/10/22 05:49:00;;;;;;;8.38;1.70;;;12.00;99.90;;;;;;6156998;23;20024;-81
2023/10/22 05:51:26;;;;;;;11.88;2.90;;;11.90;99.90;;;;;;6157870;23;20375;-79
2023/10/22 05:53:54;;;;;;;8.10;1.88;;;11.90;99.90;;;;;;6131459;23;20045;-79
2023/10/22 05:56:24;;;;;;;7.97;1.92;;;11.90;99.90;;;;;;6157807;23;20009;-82
2023/10/22 05:59:08;;;;;;;10.30;2.13;;;11.80;99.90;;;;;;6132563;23;20006;-82
2023/10/22 06:01:38;;;;;;;7.82;1.95;;;11.80;99.90;;;;;;6157093;23;20009;-85
2023/10/22 06:04:08;;;;;;;11.77;2.15;;;11.80;99.90;;;;;;6131445;23;20021;-82
2023/10/22 06:06:34;;;;;;;10.25;1.95;;;11.80;99.90;;;;;;6155915;23;20021;-81
2023/10/22 06:09:00;;;;;;;18.85;7.45;;;11.80;99.90;;;;;;6157463;23;20017;-80
2023/10/22 06:11:25;;;;;;;9.70;3.10;;;11.80;99.90;;;;;;6131182;23;20028;-83
2023/10/22 06:13:51;;;;;;;9.82;5.93;;;11.80;99.90;;;;;;6131930;23;20021;-81
2023/10/22 06:16:43;;;;;;;;;;;;;;;;;;;;;
2023/10/22 06:19:09;;;;;;;10.65;4.50;;;11.80;99.90;;;;;;6155088;23;20513;-83
2023/10/22 06:21:34;;;;;;;11.40;5.95;;;11.70;99.90;;;;;;6115847;23;20048;-79
2023/10/22 06:24:21;;;;;;;6.40;1.98;;;11.70;99.90;;;;;;6126012;23;20018;-82
2023/10/22 06:27:02;;;;;;;10.27;2.00;;;11.70;99.90;;;;;;6127294;23;20018;-84
2023/10/22 06:29:41;;;;;;;10.60;2.20;;;11.60;99.90;;;;;;6126159;23;20025;-83
2023/10/22 06:32:21;;;;;;;5.55;1.70;;;11.60;99.90;;;;;;6101427;23;20372;-84
2023/10/22 06:34:47;;;;;;;4.03;2.88;;;11.60;99.90;;;;;;6124287;23;20028;-83
2023/10/22 06:37:23;;;;;;;5.35;3.53;;;11.60;99.90;;;;;;6078411;23;20018;-79
2023/10/22 06:46:31;;;;;;;5.13;3.00;;;11.60;99.90;;;;;;6042708;23;20247;-82
2023/10/22 06:49:34;;;;;;;;;;;;;;;;;;;;;
2023/10/22 06:52:01;;;;;;;5.93;2.92;;;11.50;99.90;;;;;;6095867;23;20025;-80
2023/10/22 06:54:30;;;;;;;9.68;3.85;;;11.50;99.90;;;;;;6127538;23;20024;-81
2023/10/22 06:56:59;;;;;;;8.90;3.88;;;11.50;99.90;;;;;;6127199;23;20112;-81
2023/10/22 06:59:30;;;;;;;7.72;3.65;;;11.40;99.90;;;;;;6077916;23;20018;-83
2023/10/22 07:01:56;;;;;;;9.85;3.65;;;11.40;99.90;;;;;;6077045;23;20022;-83
2023/10/22 07:04:22;;;;;;;7.65;3.70;;;11.40;99.90;;;;;;6127503;23;20014;-82
2023/10/22 07:06:48;;;;;;;11.88;4.20;;;11.40;99.90;;;;;;6127503;23;20025;-81
2023/10/22 07:09:13;;;;;;;9.40;4.95;;;11.40;99.90;;;;;;6101240;23;20321;-82
2023/10/22 07:11:39;;;;;;;7.57;4.00;;;11.40;99.90;;;;;;6127355;23;20026;-80
2023/10/22 07:14:08;;;;;;;5.47;3.13;;;11.40;99.90;;;;;;6127423;23;20021;-83
2023/10/22 07:16:34;;;;;;;9.45;4.55;;;11.40;99.90;;;;;;6075192;23;20473;-84
2023/10/22 07:19:10;;;;;;;8.07;2.75;;;11.50;99.90;;;;;;6077311;23;20016;-84
2023/10/22 07:21:36;;;;;;;10.82;3.10;;;11.40;99.90;;;;;;6088528;23;20026;-84
2023/10/22 07:24:48;;;;;;;14.38;3.08;;;11.40;99.90;;;;;;6156827;23;20013;-83
2023/10/22 07:27:20;;;;;;;7.78;3.42;;;11.50;99.90;;;;;;6018408;23;20017;-86
2023/10/22 07:29:46;;;;;;;10.25;3.05;;;11.50;99.90;;;;;;6130377;23;20017;-86
2023/10/22 07:32:18;;;;;;;9.00;3.50;;;11.50;99.90;;;;;;6130286;23;20080;-83
2023/10/22 07:35:03;;;;;;;7.55;3.13;;;11.50;99.90;;;;;;6130307;23;20029;-85
2023/10/22 07:37:28;;;;;;;9.38;3.65;;;11.50;99.90;;;;;;6130273;23;20014;-82
2023/10/22 07:40:25;;;;;;;10.85;3.75;;;11.50;99.90;;;;;;6130556;23;20009;-83
2023/10/22 07:43:19;;;;;;;5.20;2.78;;;11.50;99.90;;;;;;6153046;23;20031;-83
2023/10/22 07:46:04;;;;;;;6.22;2.83;;;11.50;99.90;;;;;;6156450;23;20017;-85
2023/10/22 07:48:32;;;;;;;6.13;2.78;;;11.60;99.90;;;;;;6154523;23;20018;-84
2023/10/22 07:51:15;;;;;;;7.22;2.80;;;11.50;99.90;;;;;;6104877;23;20088;-85
2023/10/22 07:53:47;;;;;;;9.52;2.83;;;11.60;99.90;;;;;;6104955;23;20052;-84
2023/10/22 07:56:24;;;;;;;7.63;2.50;;;11.50;99.90;;;;;;6130063;23;20013;-83
2023/10/22 07:59:01;;;;;;;10.38;2.60;;;11.60;99.90;;;;;;6105954;23;20459;-84
2023/10/22 08:01:27;;;;;;;6.22;2.50;;;11.60;99.90;;;;;;6129373;23;20009;-85
2023/10/22 08:03:56;;;;;;;4.03;2.00;;;11.60;99.90;;;;;;6129413;23;20068;-82
2023/10/22 08:06:21;;;;;;;5.82;2.20;;;11.60;99.90;;;;;;6130373;23;20018;-86
2023/10/22 08:08:47;;;;;;;8.93;2.17;;;11.60;99.90;;;;;;6155990;23;20031;-84
2023/10/22 08:11:19;;;;;;;5.10;1.70;;;11.60;99.90;;;;;;6156383;23;20014;-83
2023/10/22 08:13:44;;;;;;;3.28;1.80;;;11.60;99.90;;;;;;6131693;23;20049;-79
2023/10/22 08:16:29;;;;;;;6.22;1.80;;;11.70;99.90;;;;;;6165080;23;20013;-80
2023/10/22 08:18:54;;;;;;;6.00;1.98;;;11.70;99.90;;;;;;6136204;23;20017;-84
2023/10/22 08:21:36;;;;;;;8.85;1.83;;;11.70;99.90;;;;;;6156829;23;20093;-82
2023/10/22 08:24:02;;;;;;;3.28;1.30;;;11.70;99.90;;;;;;6106247;23;20048;-88
2023/10/22 08:26:28;;;;;;;4.05;1.20;;;11.70;99.90;;;;;;6106835;23;20017;-87
2023/10/22 08:28:53;;;;;;;5.80;1.23;;;11.80;99.90;;;;;;6155247;23;20293;-80
2023/10/22 08:31:19;;;;;;;8.80;1.50;;;11.80;99.90;;;;;;6156721;23;20017;-83
2023/10/22 08:33:48;;;;;;;7.95;1.27;;;11.80;99.90;;;;;;6127708;23;20395;-83
2023/10/22 08:36:15;;;;;;;3.83;1.38;;;11.80;99.90;;;;;;6152792;23;20048;-84
2023/10/22 08:38:43;;;;;;;6.10;1.45;;;11.90;99.90;;;;;;6153783;23;20006;-81
2023/10/22 08:41:19;;;;;;;7.72;1.50;;;11.90;99.90;;;;;;6127764;23;20391;-82
2023/10/22 08:43:47;;;;;;;4.53;1.30;;;11.90;99.90;;;;;;6130330;23;20016;-83
2023/10/22 08:46:13;;;;;;;5.35;1.40;;;11.90;99.90;;;;;;6156013;23;20018;-83
2023/10/22 08:48:40;;;;;;;5.80;1.10;;;12.00;99.90;;;;;;6154537;23;20071;-83
2023/10/22 08:51:06;;;;;;;7.72;1.75;;;12.10;99.90;;;;;;6105497;23;20025;-83
2023/10/22 08:53:35;;;;;;;5.32;1.40;;;12.20;99.90;;;;;;6130479;23;20120;-81
2023/10/22 08:56:04;;;;;;;5.78;1.38;;;12.30;99.90;;;;;;6156003;23;20054;-84
2023/10/22 08:58:30;;;;;;;4.40;1.30;;;12.40;99.90;;;;;;6129525;23;20329;-83
2023/10/22 09:00:56;;;;;;;3.17;1.10;;;12.50;99.90;;;;;;6156056;23;20048;-83
2023/10/22 09:03:24;;;;;;;3.33;1.00;;;12.60;99.90;;;;;;6156338;23;20044;-84
2023/10/22 09:05:51;;;;;;;2.97;0.98;;;12.70;99.90;;;;;;6156981;23;20010;-84
2023/10/22 09:08:17;;;;;;;3.80;0.93;;;12.70;99.90;;;;;;6105504;23;20027;-83
2023/10/22 09:10:43;;;;;;;3.22;1.10;;;12.80;99.90;;;;;;6156111;23;20017;-83
2023/10/22 09:13:22;;;;;;;2.95;1.15;;;12.90;99.90;;;;;;6156190;23;20055;-82
2023/10/22 09:15:54;;;;;;;2.83;0.70;;;13.00;99.90;;;;;;6156453;23;20018;-83
2023/10/22 09:18:20;;;;;;;1.80;0.80;;;13.00;99.90;;;;;;6156507;23;20305;-84
2023/10/22 09:20:46;;;;;;;3.70;1.20;;;13.10;99.90;;;;;;6156059;23;20071;-83
2023/10/22 09:23:19;;;;;;;6.82;1.20;;;13.10;99.90;;;;;;6129654;23;20018;-82
2023/10/22 09:25:50;;;;;;;3.13;0.90;;;13.20;99.90;;;;;;6156160;23;20024;-83
2023/10/22 09:28:27;;;;;;;2.50;1.02;;;13.20;99.90;;;;;;6156708;23;20443;-83
2023/10/22 09:30:58;;;;;;;3.60;0.88;;;13.20;99.90;;;;;;6131048;23;20017;-83
2023/10/22 09:33:48;;;;;;;3.78;0.95;;;13.30;99.90;;;;;;6156054;23;20440;-84
2023/10/22 09:36:14;;;;;;;2.60;0.70;;;13.20;99.90;;;;;;6105804;23;20483;-83
2023/10/22 09:38:50;;;;;;;3.55;0.70;;;13.20;99.90;;;;;;6105490;23;20088;-82
2023/10/22 09:41:26;;;;;;;5.05;0.80;;;13.10;99.90;;;;;;6156046;23;20014;-82
2023/10/22 09:43:58;;;;;;;4.20;0.73;;;13.10;99.90;;;;;;6157028;23;20020;-82
2023/10/22 09:46:35;;;;;;;1.25;0.50;;;13.00;99.90;;;;;;6130038;23;20016;-84
2023/10/22 09:49:03;;;;;;;1.27;0.52;;;13.00;99.90;;;;;;6129921;23;20343;-82
2023/10/22 09:51:35;;;;;;;5.57;0.93;;;12.90;99.90;;;;;;6155983;23;20010;-83
2023/10/22 09:54:05;;;;;;;1.50;0.82;;;13.00;99.90;;;;;;6156838;23;20010;-83
2023/10/22 09:56:32;;;;;;;1.98;1.08;;;13.10;99.90;;;;;;6130411;23;20085;-82
2023/10/22 09:59:10;;;;;;;3.15;0.90;;;13.30;99.90;;;;;;6157158;23;20009;-81
2023/10/22 10:01:37;;;;;;;2.83;0.70;;;13.30;99.90;;;;;;6106337;23;20459;-83
2023/10/22 10:04:05;;;;;;;3.72;0.95;;;13.30;99.90;;;;;;6156256;23;20020;-85
2023/10/22 10:06:31;;;;;;;5.97;1.00;;;13.40;99.90;;;;;;6156077;23;20014;-82
2023/10/22 10:08:59;;;;;;;10.38;1.02;;;13.40;99.90;;;;;;6156500;23;20036;-83
2023/10/22 10:11:26;;;;;;;1.48;0.60;;;13.40;99.90;;;;;;6158067;23;20017;-85
2023/10/22 10:13:52;;;;;;;3.25;0.70;;;13.40;99.90;;;;;;6131548;23;20096;-83
2023/10/22 10:16:23;;;;;;;3.70;0.68;;;13.40;99.90;;;;;;6158244;23;20377;-82
2023/10/22 10:19:08;;;;;;;2.67;0.70;;;13.30;99.90;;;;;;6132958;23;20013;-82
2023/10/22 10:21:33;;;;;;;4.45;1.10;;;13.30;99.90;;;;;;6157867;23;20005;-81
2023/10/22 10:24:15;;;;;;;2.72;0.93;;;13.50;99.90;;;;;;6157304;23;20093;-84
2023/10/22 10:26:44;;;;;;;2.05;0.70;;;13.70;99.90;;;;;;6158233;23;20019;-81
2023/10/22 10:29:19;;;;;;;2.78;0.65;;;13.70;99.90;;;;;;6157517;23;20359;-82
2023/10/22 10:31:47;;;;;;;2.17;0.75;;;13.70;99.90;;;;;;6158723;23;20304;-83
2023/10/22 10:34:34;;;;;;;4.00;0.98;;;13.70;99.90;;;;;;6157624;23;20506;-82
2023/10/22 10:37:26;;;;;;;4.32;1.33;;;13.80;99.90;;;;;;6107293;23;20020;-80
2023/10/22 10:39:53;;;;;;;1.50;0.55;;;14.00;99.90;;;;;;6152666;23;20017;-81
2023/10/22 10:42:31;;;;;;;2.63;0.57;;;14.30;99.90;;;;;;6132908;23;20474;-82
2023/10/22 10:45:02;;;;;;;2.33;0.60;;;14.50;99.90;;;;;;6157607;23;20045;-81
2023/10/22 10:47:39;;;;;;;3.75;0.65;;;14.60;99.90;;;;;;6157343;23;20092;-80
2023/10/22 10:50:18;;;;;;;2.90;0.60;;;14.70;99.90;;;;;;6131372;23;20443;-83
2023/10/22 10:52:44;;;;;;;3.17;0.60;;;14.70;99.90;;;;;;6131502;23;20013;-81
2023/10/22 10:55:19;;;;;;;2.80;0.50;;;14.80;99.90;;;;;;6131312;23;20018;-83
2023/10/22 10:57:51;;;;;;;4.07;0.57;;;14.80;99.90;;;;;;6157659;23;20024;-81
2023/10/22 11:00:28;;;;;;;3.15;0.60;;;14.70;99.90;;;;;;6130451;23;20129;-81
2023/10/22 11:03:04;;;;;;;1.45;0.50;;;14.50;99.90;;;;;;6157153;23;20064;-79
2023/10/22 11:05:42;;;;;;;1.40;0.65;;;14.50;99.90;;;;;;6156797;23;20021;-80
2023/10/22 11:08:15;;;;;;;4.78;0.60;;;14.60;99.90;;;;;;6130816;23;20020;-79
2023/10/22 11:10:41;;;;;;;4.82;0.73;;;14.60;99.90;;;;;;6130584;23;20014;-82
2023/10/22 11:13:08;;;;;;;6.80;1.55;;;14.60;99.90;;;;;;6105234;23;20016;-81
2023/10/22 11:15:36;;;;;;;5.03;1.17;;;14.50;99.90;;;;;;6154968;23;20436;-80
2023/10/22 11:18:10;;;;;;;2.67;0.80;;;14.40;99.90;;;;;;6154672;23;20122;-81
2023/10/22 11:20:36;;;;;;;3.28;0.85;;;14.60;99.90;;;;;;6103700;23;20045;-81
2023/10/22 11:23:02;;;;;;;5.80;0.90;;;14.80;99.90;;;;;;6104884;23;20404;-81
2023/10/22 11:25:29;;;;;;;5.25;0.77;;;15.10;99.90;;;;;;6129421;23;20021;-79
2023/10/22 11:27:55;;;;;;;3.35;0.70;;;15.30;99.90;;;;;;6129410;23;20021;-81
2023/10/22 11:30:38;;;;;;;0.82;0.40;;;15.50;99.90;;;;;;6129475;23;20092;-79
2023/10/22 11:33:25;;;;;;;3.28;0.40;;;15.50;99.90;;;;;;6156562;23;20013;-80
2023/10/22 11:35:53;;;;;;;2.28;0.47;;;15.30;99.90;;;;;;6131676;23;20092;-80
2023/10/22 11:38:22;;;;;;;1.88;0.43;;;15.10;99.90;;;;;;6156580;23;20017;-78
2023/10/22 11:40:53;;;;;;;1.50;0.50;;;14.70;99.90;;;;;;6130378;23;20340;-80
2023/10/22 11:43:19;;;;;;;2.28;0.30;;;14.40;99.90;;;;;;6131051;23;20048;-81
2023/10/22 11:45:55;;;;;;;0.95;0.35;;;14.20;99.90;;;;;;6130241;23;20013;-80
2023/10/22 11:48:24;;;;;;;1.80;0.60;;;14.00;99.90;;;;;;6130588;23;20367;-81
2023/10/22 11:51:01;;;;;;;3.58;2.20;;;14.00;99.90;;;;;;6154799;23;20088;-81
2023/10/22 11:53:39;;;;;;;1.50;0.55;;;14.20;99.90;;;;;;6130220;23;20013;-81
2023/10/22 11:56:05;;;;;;;1.08;0.50;;;14.60;99.90;;;;;;6130963;23;20027;-80
2023/10/22 11:58:33;;;;;;;1.30;0.60;;;14.70;99.90;;;;;;6130143;23;20045;-81
2023/10/22 12:00:59;;;;;;;2.25;0.65;;;14.80;99.90;;;;;;6156504;23;20309;-82
2023/10/22 12:03:25;;;;;;;10.38;7.40;;;15.00;99.90;;;;;;6156272;23;20083;-81
2023/10/22 12:05:50;;;;;;;4.68;0.70;;;14.80;99.90;;;;;;6156043;23;20053;-80
2023/10/22 12:08:16;;;;;;;6.45;1.85;;;14.70;99.90;;;;;;6157007;23;20013;-81
2023/10/22 12:10:42;;;;;;;3.58;1.85;;;14.60;99.90;;;;;;6129935;23;20014;-81
2023/10/22 12:13:07;;;;;;;6.70;3.40;;;14.30;99.90;;;;;;6156169;23;20076;-81
2023/10/22 12:15:34;;;;;;;12.77;5.63;;;14.20;99.90;;;;;;6130227;23;20018;-81
2023/10/22 12:18:00;;;;;;;6.80;1.77;;;14.10;99.90;;;;;;6156056;23;20024;-80
2023/10/22 12:20:26;;;;;;;10.27;6.13;;;14.00;99.90;;;;;;6156274;23;20013;-81
2023/10/22 12:22:52;;;;;;;3.58;0.98;;;13.90;99.90;;;;;;6155658;23;20018;-80
2023/10/22 12:25:18;;;;;;;4.15;0.95;;;13.90;99.90;;;;;;6131238;23;20408;-82
2023/10/22 12:27:44;;;;;;;4.40;0.90;;;13.90;99.90;;;;;;6129816;23;20057;-80
2023/10/22 12:30:10;;;;;;;2.28;0.80;;;13.90;99.90;;;;;;6154331;23;20044;-81
2023/10/22 12:32:36;;;;;;;2.65;0.90;;;14.10;99.90;;;;;;6104584;23;20076;-81
2023/10/22 12:35:02;;;;;;;4.15;1.80;;;14.10;99.90;;;;;;6129399;23;20013;-80
2023/10/22 12:37:28;;;;;;;2.63;1.50;;;14.10;99.90;;;;;;6156065;23;20024;-80
2023/10/22 12:39:53;;;;;;;2.75;0.93;;;14.10;99.90;;;;;;6129491;23;20093;-80
2023/10/22 12:42:19;;;;;;;4.47;0.90;;;14.10;99.90;;;;;;6129807;23;20335;-79
2023/10/22 12:44:46;;;;;;;3.15;0.90;;;14.10;99.90;;;;;;6155660;23;20009;-80
2023/10/22 12:47:14;;;;;;;6.32;1.00;;;14.00;99.90;;;;;;6129616;23;20016;-82
2023/10/22 12:49:41;;;;;;;2.55;1.17;;;14.00;99.90;;;;;;6129529;23;20025;-81
2023/10/22 12:52:07;;;;;;;5.25;1.10;;;14.00;99.90;;;;;;6129317;23;20419;-81
2023/10/22 12:54:33;;;;;;;4.57;1.00;;;14.20;99.90;;;;;;6129490;23;20022;-82
2023/10/22 12:56:59;;;;;;;3.25;0.93;;;14.50;99.90;;;;;;6128392;23;20028;-80
2023/10/22 12:59:24;;;;;;;4.88;1.20;;;14.70;99.90;;;;;;6155529;23;20005;-82
2023/10/22 13:01:50;;;;;;;4.60;2.20;;;14.70;99.90;;;;;;6129645;23;20325;-81
2023/10/22 13:04:16;;;;;;;2.80;1.23;;;14.90;99.90;;;;;;6155647;23;20410;-79
2023/10/22 13:06:42;;;;;;;2.85;1.05;;;15.10;99.90;;;;;;6129367;23;20060;-78
2023/10/22 13:09:08;;;;;;;2.97;1.10;;;15.00;99.90;;;;;;6155553;23;20040;-80
2023/10/22 13:11:34;;;;;;;9.38;3.85;;;15.00;99.90;;;;;;6128083;23;20013;-80
2023/10/22 13:13:59;;;;;;;8.23;2.60;;;15.00;99.90;;;;;;6128243;23;20024;-80
2023/10/22 13:16:25;;;;;;;5.43;1.63;;;15.10;99.90;;;;;;6127155;23;20013;-77
2023/10/22 13:18:51;;;;;;;3.20;1.20;;;15.30;99.90;;;;;;6154465;23;20014;-78
2023/10/22 13:21:17;;;;;;;5.07;1.50;;;15.40;99.90;;;;;;6129244;23;20432;-78
2023/10/22 13:23:42;;;;;;;4.45;1.05;;;15.10;99.90;;;;;;6129151;23;20458;-79
2023/10/22 13:26:09;;;;;;;2.38;0.82;;;15.10;99.90;;;;;;6153910;23;20024;-81
2023/10/22 13:28:35;;;;;;;3.90;1.20;;;15.20;99.90;;;;;;6155519;23;20049;-79
2023/10/22 13:31:02;;;;;;;3.05;1.60;;;15.10;99.90;;;;;;6129097;23;20028;-80
2023/10/22 13:33:28;;;;;;;6.03;2.75;;;15.00;99.90;;;;;;6129138;23;20013;-81
2023/10/22 13:35:55;;;;;;;4.88;1.50;;;15.00;99.90;;;;;;6129398;23;20084;-79
2023/10/22 13:38:21;;;;;;;1.95;0.93;;;14.90;99.90;;;;;;6129307;23;20387;-80
2023/10/22 13:40:50;;;;;;;2.20;0.75;;;14.90;99.90;;;;;;6155738;23;20014;-81
2023/10/22 13:43:15;;;;;;;3.55;1.33;;;14.80;99.90;;;;;;6153899;23;20336;-80
2023/10/22 13:45:41;;;;;;;2.67;0.90;;;14.70;99.90;;;;;;6131180;23;20427;-80
2023/10/22 13:48:07;;;;;;;1.77;1.00;;;14.60;99.90;;;;;;6131269;23;20080;-80
2023/10/22 13:50:35;;;;;;;3.00;0.73;;;14.40;99.90;;;;;;6157440;23;20024;-79
2023/10/22 13:53:00;;;;;;;3.15;0.80;;;14.40;99.90;;;;;;6157679;23;20051;-80
2023/10/22 13:55:36;;;;;;;3.35;1.63;;;14.30;99.90;;;;;;6106800;23;20045;-79
2023/10/22 13:58:02;;;;;;;2.20;1.20;;;14.30;99.90;;;;;;6156819;23;20324;-79
2023/10/22 14:00:28;;;;;;;7.32;2.85;;;14.40;99.90;;;;;;6106499;23;20097;-79
2023/10/22 14:02:54;;;;;;;1.77;0.80;;;14.50;99.90;;;;;;6155959;23;20013;-79
2023/10/22 14:05:19;;;;;;;4.20;1.85;;;14.50;99.90;;;;;;6131037;23;20013;-81
2023/10/22 14:07:48;;;;;;;4.20;1.20;;;14.50;99.90;;;;;;6106619;23;20052;-78
2023/10/22 14:10:14;;;;;;;7.68;1.45;;;14.50;99.90;;;;;;6130939;23;20014;-78
2023/10/22 14:12:40;;;;;;;5.15;1.50;;;14.60;99.90;;;;;;6156029;23;20096;-78
2023/10/22 14:15:07;;;;;;;3.97;1.58;;;14.60;99.90;;;;;;6131272;23;20505;-77
2023/10/22 14:17:34;;;;;;;7.55;4.00;;;14.50;99.90;;;;;;6131195;23;20097;-80
2023/10/22 14:20:00;;;;;;;5.10;1.30;;;14.50;99.90;;;;;;6130964;23;20388;-81
2023/10/22 14:22:25;;;;;;;4.32;1.30;;;14.50;99.90;;;;;;6130970;23;20009;-80
2023/10/22 14:24:54;;;;;;;2.05;0.90;;;14.40;99.90;;;;;;6130945;23;20356;-80
2023/10/22 14:27:24;;;;;;;3.60;1.27;;;14.30;99.90;;;;;;6130889;23;20020;-78
2023/10/22 14:29:53;;;;;;;1.98;0.88;;;14.30;99.90;;;;;;6131143;23;20018;-80
2023/10/22 14:32:18;;;;;;;4.07;1.10;;;14.30;99.90;;;;;;6131525;23;20013;-80
2023/10/22 14:34:44;;;;;;;2.08;1.10;;;14.20;99.90;;;;;;6130803;23;20032;-81
2023/10/22 14:37:10;;;;;;;6.97;3.90;;;14.10;99.90;;;;;;6106315;23;20013;-82
2023/10/22 14:39:36;;;;;;;8.57;4.85;;;14.20;99.90;;;;;;6157215;23;20010;-80
2023/10/22 14:42:05;;;;;;;5.90;3.50;;;14.20;99.90;;;;;;6130547;23;20080;-80
2023/10/22 14:44:30;;;;;;;3.55;1.00;;;14.30;99.90;;;;;;6106404;23;20351;-79
2023/10/22 14:46:56;;;;;;;2.88;1.02;;;14.30;99.90;;;;;;6106354;23;20427;-79
2023/10/22 14:49:23;;;;;;;2.22;1.02;;;14.30;99.90;;;;;;6156775;23;20006;-80
2023/10/22 14:51:48;;;;;;;3.55;1.33;;;14.30;99.90;;;;;;6130547;23;20025;-79
2023/10/22 14:54:14;;;;;;;3.20;0.60;;;14.30;99.90;;;;;;6155399;23;20013;-80
2023/10/22 14:56:40;;;;;;;3.30;0.98;;;14.30;99.90;;;;;;6156263;23;20096;-79
2023/10/22 14:59:08;;;;;;;1.00;0.50;;;14.30;99.90;;;;;;6157030;23;20235;-77
2023/10/22 15:01:34;;;;;;;6.43;2.88;;;14.30;99.90;;;;;;6130200;23;20009;-78
2023/10/22 15:03:59;;;;;;;7.00;2.97;;;14.20;99.90;;;;;;6130309;23;20116;-78
2023/10/22 15:06:25;;;;;;;4.57;1.77;;;14.20;99.90;;;;;;6155273;23;20018;-77
2023/10/22 15:08:51;;;;;;;4.57;2.10;;;14.20;99.90;;;;;;6130641;23;20018;-76
2023/10/22 15:11:19;;;;;;;3.03;1.17;;;14.20;99.90;;;;;;6156649;23;20011;-79
2023/10/22 15:13:46;;;;;;;4.93;0.90;;;14.20;99.90;;;;;;6157009;23;20013;-77
2023/10/22 15:16:13;;;;;;;6.07;1.40;;;14.10;99.90;;;;;;6130354;23;20014;-78
2023/10/22 15:18:38;;;;;;;2.50;0.98;;;14.10;99.90;;;;;;6130468;23;20056;-77
2023/10/22 15:21:04;;;;;;;6.22;2.53;;;14.00;99.90;;;;;;6130219;23;20060;-78
2023/10/22 15:23:30;;;;;;;5.68;2.50;;;13.90;99.90;;;;;;6130380;23;20013;-78
2023/10/22 15:25:56;;;;;;;8.18;2.38;;;13.90;99.90;;;;;;6130493;23;20043;-78
2023/10/22 15:28:21;;;;;;;3.92;1.52;;;13.80;99.90;;;;;;6155216;23;20013;-78
2023/10/22 15:30:47;;;;;;;4.95;0.95;;;13.80;99.90;;;;;;6130368;23;20351;-77
2023/10/22 15:33:13;;;;;;;25.73;11.88;;;13.80;99.90;;;;;;6106496;23;20013;-78
2023/10/22 15:35:39;;;;;;;13.18;6.68;;;13.80;99.90;;;;;;6156920;23;20443;-77
2023/10/22 15:38:08;;;;;;;46.42;27.33;;;13.80;99.90;;;;;;6130578;23;20014;-78
2023/10/22 15:40:34;;;;;;;7.60;3.92;;;13.70;99.90;;;;;;6156944;23;20092;-78
2023/10/22 15:43:00;;;;;;;7.30;3.25;;;13.70;99.90;;;;;;6130022;23;20037;-79
2023/10/22 15:45:26;;;;;;;7.25;5.57;;;13.60;99.90;;;;;;6130225;23;20059;-78
2023/10/22 15:47:57;;;;;;;9.48;7.53;;;13.50;99.90;;;;;;6130190;23;20070;-78
2023/10/22 15:50:24;;;;;;;26.83;22.40;;;13.50;99.90;;;;;;6130089;23;20022;-77
2023/10/22 15:52:51;;;;;;;4.38;2.05;;;13.40;99.90;;;;;;6105516;23;20040;-78
2023/10/22 15:55:17;;;;;;;4.03;0.80;;;13.30;99.90;;;;;;6156860;23;20009;-78
2023/10/22 15:57:43;;;;;;;5.88;1.40;;;13.20;99.90;;;;;;6155894;23;20018;-78
2023/10/22 16:00:09;;;;;;;5.32;1.10;;;13.10;99.90;;;;;;6156443;23;20453;-77
2023/10/22 16:02:36;;;;;;;1.33;0.90;;;13.10;99.90;;;;;;6130388;23;20380;-78
2023/10/22 16:05:04;;;;;;;4.70;1.25;;;13.00;99.90;;;;;;6156549;23;20013;-77
2023/10/22 16:07:31;;;;;;;2.00;0.98;;;12.90;99.90;;;;;;6156351;23;20018;-78
2023/10/22 16:09:58;;;;;;;4.00;0.95;;;12.90;99.90;;;;;;6130031;23;20017;-77
2023/10/22 16:12:26;;;;;;;2.58;0.77;;;12.80;99.90;;;;;;6130010;23;20343;-77
2023/10/22 16:14:52;;;;;;;5.40;1.17;;;12.80;99.90;;;;;;6130136;23;20017;-78
2023/10/22 16:17:18;;;;;;;4.20;1.30;;;12.80;99.90;;;;;;6129874;23;20022;-77
2023/10/22 16:19:43;;;;;;;2.15;1.15;;;12.80;99.90;;;;;;6155985;23;20309;-78
2023/10/22 16:22:09;;;;;;;3.35;1.40;;;12.70;99.90;;;;;;6129715;23;20009;-78
2023/10/22 16:24:35;;;;;;;6.63;1.42;;;12.70;99.90;;;;;;6155759;23;20009;-78
2023/10/22 16:27:00;;;;;;;3.30;1.10;;;12.70;99.90;;;;;;6129722;23;20090;-78
2023/10/22 16:29:26;;;;;;;7.60;1.90;;;12.70;99.90;;;;;;6129700;23;20392;-78
2023/10/22 16:31:52;;;;;;;3.72;1.60;;;12.60;99.90;;;;;;6153924;23;20014;-78
2023/10/22 16:34:18;;;;;;;6.80;2.20;;;12.60;99.90;;;;;;6156096;23;20024;-78
2023/10/22 16:36:43;;;;;;;7.40;2.38;;;12.60;99.90;;;;;;6105009;23;20018;-78
2023/10/22 16:39:09;;;;;;;6.53;2.15;;;12.50;99.90;;;;;;6129640;23;20005;-78
2023/10/22 16:41:34;;;;;;;6.28;1.90;;;12.50;99.90;;;;;;6105184;23;20063;-78
2023/10/22 16:44:00;;;;;;;6.65;1.92;;;12.40;99.90;;;;;;6155843;23;20016;-77
2023/10/22 16:46:26;;;;;;;3.85;1.90;;;12.40;99.90;;;;;;6129602;23;20028;-79
2023/10/22 16:48:54;;;;;;;3.80;1.38;;;12.40;99.90;;;;;;6129660;23;20018;-78
2023/10/22 16:51:20;;;;;;;5.00;2.10;;;12.30;99.90;;;;;;6154155;23;20451;-77
2023/10/22 16:53:46;;;;;;;4.50;1.50;;;12.30;99.90;;;;;;6129609;23;20025;-78
2023/10/22 16:56:12;;;;;;;6.85;1.67;;;12.30;99.90;;;;;;6129677;23;20017;-78
2023/10/22 16:58:38;;;;;;;6.38;1.45;;;12.30;99.90;;;;;;6129705;23;20080;-79
2023/10/22 17:01:04;;;;;;;5.35;1.40;;;12.30;99.90;;;;;;6129533;23;20021;-79
2023/10/22 17:03:31;;;;;;;4.80;1.67;;;12.20;99.90;;;;;;6130024;23;20014;-78
2023/10/22 17:05:57;;;;;;;5.22;1.60;;;12.20;99.90;;;;;;6129649;23;20013;-78
2023/10/22 17:08:22;;;;;;;3.95;1.52;;;12.20;99.90;;;;;;6129802;23;20009;-78